YFC94 WSSL-WSSL

Flight info

Callsign YFC94
Flight time 0h 31m
Altitude 6000
Route WSSL WSSL
Aircraft DA40/L-V/N

Departure

Time 2026-05-05 14:42
Airport Seletar Airport (WSSL)

Arrival

Time 2026-05-05 15:14
Airport Seletar Airport (WSSL)
Time Latitude Longitude Altitude Speed Heading
2026-05-05 14:32 1.41668 103.86508 32 ft 0 kts 35°
2026-05-05 14:33 1.41669 103.86510 32 ft 1 kts 77°
2026-05-05 14:33 1.41668 103.86513 32 ft 0 kts 110°
2026-05-05 14:36 1.41667 103.86515 32 ft 3 kts 110°
2026-05-05 14:37 1.41650 103.86557 31 ft 0 kts 112°
2026-05-05 14:37 1.41627 103.86540 32 ft 11 kts 224°
2026-05-05 14:37 1.41562 103.86541 33 ft 3 kts 118°
2026-05-05 14:38 1.41561 103.86542 33 ft 0 kts 117°
2026-05-05 14:39 1.41561 103.86543 33 ft 2 kts 118°
2026-05-05 14:39 1.41550 103.86562 33 ft 0 kts 119°
2026-05-05 14:40 1.41549 103.86563 33 ft 2 kts 119°
2026-05-05 14:41 1.41512 103.86615 34 ft 15 kts 129°
2026-05-05 14:41 1.41412 103.86596 35 ft 18 kts 221°
2026-05-05 14:41 1.41436 103.86584 35 ft 14 kts 59°
2026-05-05 14:41 1.41552 103.86671 32 ft 40 kts 35°
2026-05-05 14:42 1.41957 103.86927 134 ft 82 kts 30°
2026-05-05 14:42 1.42456 103.87192 472 ft 78 kts 18°
2026-05-05 14:42 1.43019 103.87375 751 ft 79 kts 11°
2026-05-05 14:42 1.43621 103.87313 984 ft 88 kts 328°
2026-05-05 14:43 1.43795 103.86809 969 ft 113 kts 225°
2026-05-05 14:43 1.43235 103.86320 1245 ft 105 kts 220°
2026-05-05 14:43 1.42658 103.85853 1404 ft 113 kts 218°
2026-05-05 14:43 1.42041 103.85401 1676 ft 105 kts 213°
2026-05-05 14:44 1.41414 103.85026 1894 ft 108 kts 210°
2026-05-05 14:44 1.40762 103.84667 2149 ft 105 kts 208°
2026-05-05 14:44 1.40125 103.84361 2470 ft 98 kts 204°
2026-05-05 14:44 1.39573 103.83924 2594 ft 111 kts 240°
2026-05-05 14:45 1.39473 103.83257 3049 ft 89 kts 269°
2026-05-05 14:45 1.39504 103.82600 3252 ft 99 kts 272°
2026-05-05 14:45 1.39511 103.81898 3439 ft 108 kts 269°
2026-05-05 14:45 1.39497 103.81109 3571 ft 115 kts 267°
2026-05-05 14:46 1.39418 103.80300 3674 ft 122 kts 262°
2026-05-05 14:46 1.39448 103.79451 3853 ft 119 kts 277°
2026-05-05 14:46 1.39830 103.78750 4045 ft 120 kts 310°
2026-05-05 14:46 1.40396 103.78153 4354 ft 106 kts 311°
2026-05-05 14:47 1.40906 103.77586 4527 ft 112 kts 311°
2026-05-05 14:47 1.41518 103.77262 4864 ft 107 kts
2026-05-05 14:47 1.42107 103.77701 5017 ft 117 kts 66°
2026-05-05 14:47 1.42063 103.78501 5137 ft 123 kts 111°
2026-05-05 14:48 1.41781 103.79293 5374 ft 117 kts 117°
2026-05-05 14:48 1.41104 103.79690 5458 ft 124 kts 178°
2026-05-05 14:48 1.40249 103.79561 5600 ft 124 kts 191°
2026-05-05 14:48 1.39338 103.79463 5514 ft 138 kts 183°
2026-05-05 14:49 1.38389 103.79382 5598 ft 134 kts 185°
2026-05-05 14:49 1.37402 103.79294 5361 ft 150 kts 185°
2026-05-05 14:49 1.36519 103.79735 5260 ft 151 kts 120°
2026-05-05 14:49 1.36680 103.80708 5210 ft 147 kts 59°
2026-05-05 14:50 1.37188 103.81559 5344 ft 139 kts 57°
2026-05-05 14:50 1.37751 103.82324 5459 ft 136 kts 51°
2026-05-05 14:50 1.38396 103.83014 5507 ft 139 kts 39°
2026-05-05 14:50 1.39250 103.83466 5515 ft 142 kts 22°
2026-05-05 14:51 1.40192 103.83797 5568 ft 139 kts 14°
2026-05-05 14:51 1.41145 103.84049 5544 ft 144 kts 14°
2026-05-05 14:51 1.42105 103.84315 5574 ft 143 kts 19°
2026-05-05 14:51 1.42997 103.84747 5599 ft 143 kts 27°
2026-05-05 14:52 1.43903 103.85167 5603 ft 144 kts 22°
2026-05-05 14:52 1.44834 103.85533 5605 ft 145 kts 20°
2026-05-05 14:52 1.45146 103.86270 5551 ft 134 kts 120°
2026-05-05 14:52 1.44423 103.86421 5828 ft 116 kts 217°
2026-05-05 14:53 1.43776 103.85816 5696 ft 138 kts 224°
2026-05-05 14:53 1.43024 103.85145 5498 ft 149 kts 220°
2026-05-05 14:53 1.42261 103.84530 5664 ft 135 kts 215°
2026-05-05 14:53 1.41435 103.84059 5621 ft 141 kts 208°
2026-05-05 14:54 1.40530 103.83659 5592 ft 142 kts 202°
2026-05-05 14:54 1.39606 103.83303 5561 ft 143 kts 200°
2026-05-05 14:54 1.38646 103.83031 5504 ft 144 kts 192°
2026-05-05 14:54 1.37678 103.83292 5092 ft 163 kts 136°
2026-05-05 14:55 1.37363 103.84344 4906 ft 159 kts 79°
2026-05-05 14:55 1.38012 103.85155 4820 ft 155 kts 23°
2026-05-05 14:55 1.39042 103.85068 4706 ft 151 kts 325°
2026-05-05 14:55 1.39717 103.84316 4675 ft 146 kts 300°
2026-05-05 14:56 1.39886 103.83295 4336 ft 157 kts 266°
2026-05-05 14:56 1.39810 103.82200 4088 ft 156 kts 263°
2026-05-05 14:56 1.39626 103.81109 3690 ft 163 kts 255°
2026-05-05 14:56 1.39204 103.80071 3394 ft 159 kts 241°
2026-05-05 14:57 1.38629 103.79193 3236 ft 143 kts 229°
2026-05-05 14:57 1.37841 103.78717 3189 ft 134 kts 193°
2026-05-05 14:57 1.36854 103.78799 2646 ft 149 kts 163°
2026-05-05 14:57 1.36018 103.79329 2314 ft 140 kts 134°
2026-05-05 14:58 1.35602 103.80139 2388 ft 121 kts 107°
2026-05-05 14:58 1.35669 103.80976 2262 ft 129 kts 70°
2026-05-05 14:58 1.36026 103.81825 2092 ft 135 kts 65°
2026-05-05 14:58 1.36445 103.82720 1738 ft 146 kts 64°
2026-05-05 14:59 1.36994 103.83540 1584 ft 140 kts 47°
2026-05-05 14:59 1.37697 103.84197 1375 ft 137 kts 38°
2026-05-05 14:59 1.38411 103.84770 1325 ft 128 kts 43°
2026-05-05 14:59 1.39052 103.85373 1298 ft 124 kts 43°
2026-05-05 15:00 1.39663 103.85926 1498 ft 114 kts 41°
2026-05-05 15:00 1.40045 103.86254 1699 ft 105 kts 39°
2026-05-05 15:00 1.40834 103.86872 2062 ft 103 kts 36°
2026-05-05 15:00 1.41458 103.87294 2260 ft 108 kts 32°
2026-05-05 15:01 1.42143 103.87656 2423 ft 116 kts 23°
2026-05-05 15:01 1.42912 103.87789 2697 ft 108 kts 348°
2026-05-05 15:01 1.43491 103.87399 3002 ft 103 kts 301°
2026-05-05 15:01 1.43828 103.86738 3128 ft 114 kts 294°
2026-05-05 15:02 1.44159 103.85985 3176 ft 123 kts 291°
2026-05-05 15:02 1.44349 103.85161 3175 ft 124 kts 260°
2026-05-05 15:02 1.43915 103.84440 3184 ft 123 kts 217°
2026-05-05 15:02 1.43158 103.84065 3259 ft 120 kts 202°
2026-05-05 15:03 1.42368 103.83768 3263 ft 124 kts 200°
2026-05-05 15:03 1.41557 103.83491 3283 ft 124 kts 199°
2026-05-05 15:03 1.40708 103.83225 3214 ft 129 kts 196°
2026-05-05 15:03 1.39850 103.83000 3236 ft 126 kts 194°
2026-05-05 15:04 1.39046 103.82659 3205 ft 126 kts 224°
2026-05-05 15:04 1.38680 103.81948 3383 ft 117 kts 259°
2026-05-05 15:04 1.38732 103.81130 3402 ft 123 kts 284°
2026-05-05 15:04 1.38987 103.80293 3337 ft 129 kts 283°
2026-05-05 15:05 1.39144 103.78525 3296 ft 129 kts 255°
2026-05-05 15:05 1.38676 103.77756 3194 ft 132 kts 221°
2026-05-05 15:05 1.37836 103.77422 3107 ft 135 kts 183°
2026-05-05 15:06 1.36926 103.77681 2953 ft 139 kts 147°
2026-05-05 15:06 1.36327 103.78418 2808 ft 142 kts 113°
2026-05-05 15:06 1.36223 103.79404 2607 ft 146 kts 81°
2026-05-05 15:06 1.36629 103.80327 2449 ft 145 kts 58°
2026-05-05 15:07 1.37221 103.81124 2346 ft 142 kts 46°
2026-05-05 15:07 1.38044 103.81606 2366 ft 132 kts 11°
2026-05-05 15:07 1.38919 103.81452 2422 ft 130 kts 324°
2026-05-05 15:07 1.39331 103.80702 2506 ft 126 kts 271°
2026-05-05 15:08 1.38954 103.79947 2541 ft 127 kts 215°
2026-05-05 15:08 1.38104 103.79865 2580 ft 130 kts 157°
2026-05-05 15:08 1.37553 103.80577 2483 ft 140 kts 102°
2026-05-05 15:08 1.37670 103.81545 2386 ft 144 kts 78°
2026-05-05 15:09 1.37925 103.82529 2202 ft 150 kts 73°
2026-05-05 15:09 1.38280 103.83521 2027 ft 149 kts 69°
2026-05-05 15:09 1.38666 103.84438 2045 ft 142 kts 65°
2026-05-05 15:09 1.39087 103.85341 1959 ft 143 kts 65°
2026-05-05 15:10 1.39524 103.86229 1927 ft 141 kts 63°
2026-05-05 15:10 1.40012 103.87053 1999 ft 134 kts 52°
2026-05-05 15:10 1.40709 103.87669 2013 ft 135 kts 38°
2026-05-05 15:10 1.41495 103.88228 1916 ft 141 kts 31°
2026-05-05 15:11 1.42394 103.88410 1994 ft 133 kts 344°
2026-05-05 15:11 1.43117 103.87848 1958 ft 133 kts 301°
2026-05-05 15:11 1.43345 103.86970 1923 ft 136 kts 266°
2026-05-05 15:11 1.43017 103.86064 1681 ft 145 kts 234°
2026-05-05 15:12 1.42250 103.85424 1438 ft 142 kts 211°
2026-05-05 15:12 1.41390 103.84940 1136 ft 142 kts 208°
2026-05-05 15:12 1.40538 103.84527 1040 ft 131 kts 204°
2026-05-05 15:12 1.39698 103.84266 995 ft 123 kts 180°
2026-05-05 15:13 1.39046 103.84731 892 ft 126 kts 107°
2026-05-05 15:13 1.39428 103.85432 669 ft 132 kts 21°
2026-05-05 15:13 1.40261 103.85822 269 ft 129 kts 33°
2026-05-05 15:13 1.40935 103.86275 73 ft 104 kts 33°
2026-05-05 15:14 1.41482 103.86629 34 ft 84 kts 34°
2026-05-05 15:14 1.41885 103.86888 25 ft 49 kts 33°
2026-05-05 15:14 1.42091 103.87022 22 ft 31 kts 32°
2026-05-05 15:14 1.42250 103.87102 20 ft 15 kts 359°
2026-05-05 15:15 1.42292 103.87040 19 ft 14 kts 297°
2026-05-05 15:15 1.42279 103.86958 20 ft 16 kts 211°
2026-05-05 15:15 1.42178 103.86891 22 ft 18 kts 213°
2026-05-05 15:15 1.42064 103.86820 24 ft 20 kts 213°
2026-05-05 15:16 1.41945 103.86740 26 ft 21 kts 214°
2026-05-05 15:16 1.41826 103.86654 28 ft 22 kts 217°
2026-05-05 15:16 1.41692 103.86578 31 ft 22 kts 214°
2026-05-05 15:16 1.41609 103.86521 32 ft 13 kts 212°
2026-05-05 15:17 1.41533 103.86466 34 ft 6 kts 210°
2026-05-05 15:17 1.41532 103.86465 34 ft 0 kts 210°
2026-05-05 15:17 1.41527 103.86462 34 ft 5 kts 210°
2026-05-05 15:17 1.41453 103.86430 35 ft 16 kts 204°
2026-05-05 15:18 1.41424 103.86340 36 ft 7 kts 338°